Bookmark and Share
Track history (hours):
 

Trine Charlotte

Last reported at 2014-Apr-13 07:33 UTC. Time now 2014-Apr-16 10:36 UTC.
Position N 66°17' E 012°55'.

Length 66 m; draft 4.6 m.

Type: . MMSI: 257233000.

NotesDate/timePositionNaut miles runAvg speedWind from/ knotsBaromVisibWave heightAir tempDewpointWater temp
2014-Apr-13 07:33N 66°17' E 012°55'9 8.4
2014-Apr-13 06:31N 66°26' E 012°58'8 7.8
2014-Apr-13 05:28N 66°34' E 013°04'9 8.4
2014-Apr-13 04:21N 66°43' E 013°10'32 8.5
2014-Apr-13 00:33N 67°08' E 014°02'8 8.3
2014-Apr-12 23:33N 67°16' E 014°12'8 8.5
2014-Apr-12 22:33N 67°23' E 014°24'8 8.2
2014-Apr-12 21:33N 67°31' E 014°29'13 0.3
2014-Apr-10 22:33N 67°44' E 014°31'1010.1
2014-Apr-10 21:33N 67°33' E 014°30'1010.2
2014-Apr-10 20:33N 67°23' E 014°26'1010.1
2014-Apr-10 19:33N 67°15' E 014°12'1110.4
2014-Apr-10 18:30N 67°06' E 013°57'1010.0
2014-Apr-10 17:33N 66°60' E 013°37'32 9.9
2014-Apr-10 14:20N 66°32' E 012°58'810.4
2014-Apr-10 13:33N 66°24' E 012°58'  
2014-Apr-04 16:05N 66°18' E 012°55'5 8.9
2014-Apr-04 15:33N 66°23' E 012°57'8 8.2
2014-Apr-04 14:31N 66°31' E 012°58'8 7.7
2014-Apr-04 13:27N 66°39' E 013°06'34 7.8
2014-Apr-04 09:07N 67°06' E 013°58'5 8.6
2014-Apr-04 08:33N 67°10' E 014°03'9 8.6
2014-Apr-04 07:33N 67°17' E 014°15'9 9.0
2014-Apr-04 06:33N 67°25' E 014°27'9 9.3
2014-Apr-04 05:33N 67°34' E 014°30'155 8.4
2014-Apr-03 11:04N 69°37' E 018°52'  

Dump ship's entire track history

sailing weather and tide predictions

Trine Charlotte — LMRY — position and weather